Time;durP1;ratioP1;P1;durP2;ratioP2;P2;SDS_P1;SDS_P2;PMS_P1;PMS_P2;Temp;Humidity;BMP_temperature;BMP_pressure;BME280_temperature;BME280_humidity;BME280_pressure;Samples;Min_cycle;Max_cycle;Signal;HPM_P1;HPM_P2
2022/03/15 00:00:51;;;;;;;5.80;3.85;;;20.10;94.30;;;;;;4227552;28;20270;-69
2022/03/15 00:02:55;;;;;;;5.97;3.85;;;20.00;94.30;;;;;;4225586;28;20274;-69
2022/03/15 00:04:58;;;;;;;5.35;3.40;;;20.10;94.30;;;;;;4223248;28;20258;-69
2022/03/15 00:07:00;;;;;;;6.38;3.72;;;20.00;94.30;;;;;;4228283;28;20271;-69
2022/03/15 00:09:02;;;;;;;6.32;3.78;;;20.10;94.30;;;;;;4227048;28;20217;-70
2022/03/15 00:11:05;;;;;;;7.05;4.28;;;20.00;94.30;;;;;;4227790;28;20266;-70
2022/03/15 00:13:09;;;;;;;4.88;3.55;;;20.10;94.80;;;;;;4228490;28;20214;-70
2022/03/15 00:15:12;;;;;;;7.47;4.05;;;20.00;94.30;;;;;;4226986;28;20210;-70
2022/03/15 00:17:14;;;;;;;6.38;3.25;;;20.00;94.40;;;;;;4227877;28;20221;-70
2022/03/15 00:19:17;;;;;;;6.47;3.78;;;20.00;94.30;;;;;;4226118;28;20214;-70
2022/03/15 00:21:20;;;;;;;8.20;3.40;;;20.00;94.50;;;;;;4226285;28;20226;-70
2022/03/15 00:23:22;;;;;;;6.38;4.18;;;20.00;94.30;;;;;;4223465;27;20299;-70
2022/03/15 00:25:25;;;;;;;7.05;3.47;;;20.00;94.30;;;;;;4222851;28;20627;-70
2022/03/15 00:27:27;;;;;;;8.30;4.03;;;20.00;94.60;;;;;;4227624;28;20217;-70
2022/03/15 00:29:35;;;;;;;6.03;3.30;;;20.00;94.30;;;;;;4228436;28;20638;-70
2022/03/15 00:31:39;;;;;;;5.88;3.55;;;20.00;94.30;;;;;;4226192;28;20263;-70
2022/03/15 00:33:42;;;;;;;6.05;3.65;;;20.00;94.70;;;;;;4226339;28;20210;-70
2022/03/15 00:35:44;;;;;;;6.35;3.88;;;20.00;94.50;;;;;;4224849;28;20210;-70
2022/03/15 00:37:48;;;;;;;6.80;3.70;;;20.00;94.40;;;;;;4227449;28;20306;-70
2022/03/15 00:39:51;;;;;;;5.90;3.83;;;19.90;94.30;;;;;;4227698;28;20271;-70
2022/03/15 00:41:53;;;;;;;7.95;4.00;;;19.90;94.40;;;;;;4222113;28;20616;-70
2022/03/15 00:43:56;;;;;;;6.07;3.67;;;20.00;94.50;;;;;;4221070;28;20246;-70
2022/03/15 00:46:00;;;;;;;7.18;4.00;;;20.00;94.50;;;;;;4227863;28;20672;-70
2022/03/15 00:48:02;;;;;;;5.55;3.83;;;19.90;94.50;;;;;;4225062;28;20217;-70
2022/03/15 00:50:05;;;;;;;7.72;4.30;;;19.90;94.50;;;;;;4227467;28;20264;-70
2022/03/15 00:52:08;;;;;;;5.47;3.80;;;19.90;94.30;;;;;;4226435;28;20271;-73
2022/03/15 00:54:10;;;;;;;6.95;4.07;;;19.90;94.50;;;;;;4224690;28;20213;-73
2022/03/15 00:56:12;;;;;;;7.88;4.00;;;19.90;94.60;;;;;;4225685;28;20210;-73
2022/03/15 00:58:15;;;;;;;7.70;4.05;;;19.90;94.50;;;;;;4227102;28;20662;-74
2022/03/15 01:00:18;;;;;;;9.95;4.03;;;19.90;94.40;;;;;;4213422;27;20218;-73
2022/03/15 01:02:22;;;;;;;6.97;4.13;;;19.90;94.40;;;;;;4221241;28;20217;-73
2022/03/15 01:04:24;;;;;;;5.07;3.50;;;19.90;94.40;;;;;;4221327;28;20237;-73
2022/03/15 01:06:27;;;;;;;7.40;4.18;;;19.90;94.40;;;;;;4221956;28;20213;-74
2022/03/15 01:08:29;;;;;;;6.65;4.43;;;19.90;94.40;;;;;;4221509;28;20222;-74
2022/03/15 01:10:31;;;;;;;8.00;4.18;;;19.90;94.50;;;;;;4220300;28;21143;-74
2022/03/15 01:12:34;;;;;;;7.63;4.50;;;19.90;94.40;;;;;;4225779;28;20234;-74
2022/03/15 01:14:37;;;;;;;7.55;4.28;;;19.90;94.50;;;;;;4222548;28;20256;-73
2022/03/15 01:16:40;;;;;;;5.45;3.65;;;19.90;94.40;;;;;;4227340;28;20642;-74
2022/03/15 01:18:44;;;;;;;4.90;3.60;;;19.80;94.40;;;;;;4225557;27;20263;-74
2022/03/15 01:20:47;;;;;;;7.05;4.10;;;19.80;94.40;;;;;;4229082;27;20269;-73
2022/03/15 01:22:49;;;;;;;7.82;4.25;;;19.80;94.40;;;;;;4216514;28;20264;-73
2022/03/15 01:24:51;;;;;;;6.22;4.15;;;19.80;94.40;;;;;;4226840;27;20906;-73
2022/03/15 01:26:54;;;;;;;6.35;4.10;;;19.80;94.40;;;;;;4217132;28;20218;-73
2022/03/15 01:28:56;;;;;;;5.75;4.10;;;19.80;94.30;;;;;;4227296;27;20914;-73
2022/03/15 01:30:59;;;;;;;6.78;4.50;;;19.80;94.40;;;;;;4213976;28;20721;-73
2022/03/15 01:33:01;;;;;;;7.05;4.40;;;19.80;94.40;;;;;;4214494;28;20263;-74
2022/03/15 01:35:06;;;;;;;7.40;3.97;;;19.80;94.40;;;;;;4213031;28;20215;-73
2022/03/15 01:37:08;;;;;;;5.75;3.92;;;19.80;94.50;;;;;;4226954;28;20217;-73
2022/03/15 01:39:10;;;;;;;6.38;3.92;;;19.80;94.50;;;;;;4227669;27;20270;-74
2022/03/15 01:41:13;;;;;;;8.30;4.55;;;19.80;94.30;;;;;;4225770;28;20222;-73
2022/03/15 01:43:15;;;;;;;5.07;3.50;;;19.80;94.40;;;;;;4224874;28;20327;-74
2022/03/15 01:45:17;;;;;;;7.20;4.05;;;19.70;94.30;;;;;;4223658;28;20275;-74
2022/03/15 01:47:20;;;;;;;7.35;4.10;;;19.80;94.40;;;;;;4223557;28;20267;-73
2022/03/15 01:49:22;;;;;;;5.15;3.83;;;19.80;94.40;;;;;;4226927;27;20219;-74
2022/03/15 01:51:26;;;;;;;7.35;4.30;;;19.70;94.40;;;;;;4226090;28;20221;-74
2022/03/15 01:53:28;;;;;;;7.18;4.40;;;19.80;94.40;;;;;;4224582;27;20218;-73
2022/03/15 01:55:31;;;;;;;6.93;4.05;;;19.70;94.30;;;;;;4225834;28;20221;-74
2022/03/15 01:57:34;;;;;;;6.38;4.40;;;19.70;94.40;;;;;;4225055;27;20214;-74
2022/03/15 01:59:37;;;;;;;7.53;4.32;;;19.70;94.30;;;;;;4224928;28;20222;-73
2022/03/15 02:01:39;;;;;;;6.78;4.10;;;19.70;94.40;;;;;;4225041;27;20263;-74
2022/03/15 02:03:42;;;;;;;7.00;3.90;;;19.70;94.40;;;;;;4223960;28;20286;-74
2022/03/15 02:05:44;;;;;;;6.70;4.18;;;19.70;94.30;;;;;;4223024;28;20211;-74
2022/03/15 02:07:48;;;;;;;8.00;4.13;;;19.70;94.50;;;;;;4225303;28;20213;-74
2022/03/15 02:09:51;;;;;;;8.10;4.25;;;19.70;94.30;;;;;;4228395;28;20218;-73
2022/03/15 02:11:53;;;;;;;6.10;3.90;;;19.70;94.40;;;;;;4229506;28;20259;-73
2022/03/15 02:13:55;;;;;;;6.85;4.00;;;19.70;94.40;;;;;;4229564;28;20210;-73
2022/03/15 02:15:58;;;;;;;6.50;3.53;;;19.70;94.40;;;;;;4230207;28;20217;-73
2022/03/15 02:18:00;;;;;;;8.73;4.55;;;19.70;94.30;;;;;;4227978;28;20597;-73
2022/03/15 02:20:07;;;;;;;7.65;4.45;;;19.70;94.40;;;;;;4228947;28;20657;-74
2022/03/15 02:22:09;;;;;;;7.22;4.03;;;19.70;94.40;;;;;;4229325;28;20234;-73
2022/03/15 02:24:11;;;;;;;6.70;4.28;;;19.70;94.30;;;;;;4222497;28;20775;-73
2022/03/15 02:26:16;;;;;;;7.22;4.05;;;19.70;94.40;;;;;;4223516;27;20246;-73
2022/03/15 02:28:18;;;;;;;8.45;4.38;;;19.70;94.40;;;;;;4227899;28;20279;-73
2022/03/15 02:30:22;;;;;;;6.13;4.25;;;19.60;94.30;;;;;;4229180;28;20620;-73
2022/03/15 02:32:24;;;;;;;8.85;4.63;;;19.70;94.40;;;;;;4229502;28;20263;-73
2022/03/15 02:34:26;;;;;;;5.60;3.97;;;19.70;94.40;;;;;;4228592;28;20210;-73
2022/03/15 02:36:30;;;;;;;8.38;4.35;;;19.70;94.30;;;;;;4229222;28;20229;-73
2022/03/15 02:38:32;;;;;;;5.25;3.92;;;19.60;94.20;;;;;;4229108;28;20241;-73
2022/03/15 02:40:35;;;;;;;4.93;3.67;;;19.60;94.30;;;;;;4227335;28;20278;-73
2022/03/15 02:42:37;;;;;;;6.72;4.07;;;19.60;94.30;;;;;;4229444;28;20247;-73
2022/03/15 02:44:39;;;;;;;6.82;4.13;;;19.60;94.30;;;;;;4228828;28;20290;-73
2022/03/15 02:46:42;;;;;;;6.05;3.80;;;19.70;94.40;;;;;;4228382;28;20263;-74
2022/03/15 02:48:45;;;;;;;7.43;4.00;;;19.60;94.20;;;;;;4226367;28;20217;-73
2022/03/15 02:50:48;;;;;;;5.20;3.53;;;19.60;94.30;;;;;;4227181;28;20649;-73
2022/03/15 02:52:51;;;;;;;6.97;4.05;;;19.60;94.30;;;;;;4229064;28;20218;-73
2022/03/15 02:54:54;;;;;;;4.97;3.58;;;19.60;94.30;;;;;;4228609;28;20210;-73
2022/03/15 02:56:56;;;;;;;6.53;3.75;;;19.60;94.20;;;;;;4228677;28;20619;-73
2022/03/15 02:58:58;;;;;;;7.32;3.90;;;19.60;94.20;;;;;;4228364;28;20222;-73
2022/03/15 03:01:01;;;;;;;6.25;4.10;;;19.60;94.20;;;;;;4228841;28;20218;-73
2022/03/15 03:03:03;;;;;;;6.82;3.60;;;19.60;94.30;;;;;;4228753;28;20788;-73
2022/03/15 03:05:06;;;;;;;5.45;3.58;;;19.60;94.20;;;;;;4228261;28;20238;-73
2022/03/15 03:07:09;;;;;;;6.82;3.92;;;19.60;94.20;;;;;;4228071;28;20274;-73
2022/03/15 03:09:14;;;;;;;6.15;3.63;;;19.60;94.30;;;;;;4228284;28;20213;-73
2022/03/15 03:11:17;;;;;;;7.38;3.63;;;19.60;94.30;;;;;;4228824;28;20259;-73
2022/03/15 03:13:26;;;;;;;5.28;3.97;;;19.60;94.30;;;;;;4227170;28;20214;-73
2022/03/15 03:15:29;;;;;;;5.93;3.58;;;19.60;94.30;;;;;;4228753;28;20201;-73
2022/03/15 03:17:31;;;;;;;7.15;3.92;;;19.60;94.30;;;;;;4228160;28;20213;-73
2022/03/15 03:19:38;;;;;;;5.72;3.83;;;19.60;94.20;;;;;;4229214;28;20266;-73
2022/03/15 03:21:40;;;;;;;6.05;4.07;;;19.50;94.30;;;;;;4228733;28;20222;-73
2022/03/15 03:23:43;;;;;;;5.72;3.70;;;19.60;94.10;;;;;;4226960;28;20627;-73
2022/03/15 03:25:46;;;;;;;6.13;3.90;;;19.60;94.20;;;;;;4227668;28;20283;-73
2022/03/15 03:27:49;;;;;;;7.95;4.63;;;19.50;94.10;;;;;;4224394;28;21656;-73
2022/03/15 03:29:51;;;;;;;7.18;3.85;;;19.50;94.10;;;;;;4228372;28;20311;-73
2022/03/15 03:31:53;;;;;;;6.68;3.95;;;19.50;94.50;;;;;;4228329;28;20666;-73
2022/03/15 03:33:55;;;;;;;6.68;4.03;;;19.50;94.10;;;;;;4224922;28;20222;-73
2022/03/15 03:35:58;;;;;;;6.05;3.58;;;19.50;94.20;;;;;;4226389;28;20218;-73
2022/03/15 03:38:01;;;;;;;6.15;3.88;;;19.50;94.30;;;;;;4225016;28;20229;-73
2022/03/15 03:40:07;;;;;;;5.15;3.35;;;19.50;94.10;;;;;;4228533;28;20715;-70
2022/03/15 03:42:11;;;;;;;6.05;3.85;;;19.50;94.20;;;;;;4228184;28;20616;-70
2022/03/15 03:44:16;;;;;;;5.80;3.90;;;19.50;94.00;;;;;;4225220;28;20270;-70
2022/03/15 03:46:19;;;;;;;7.65;3.78;;;19.50;94.20;;;;;;4228097;28;20205;-70
2022/03/15 03:48:22;;;;;;;6.57;3.67;;;19.50;94.10;;;;;;4228661;28;20214;-70
2022/03/15 03:50:25;;;;;;;5.43;3.78;;;19.50;94.10;;;;;;4224546;28;20625;-70
2022/03/15 03:52:27;;;;;;;7.53;3.65;;;19.50;94.20;;;;;;4222542;28;20267;-70
2022/03/15 03:54:30;;;;;;;5.90;3.60;;;19.50;94.10;;;;;;4228065;28;20610;-70
2022/03/15 03:56:33;;;;;;;7.45;3.88;;;19.50;94.10;;;;;;4228328;28;20225;-70
2022/03/15 03:58:37;;;;;;;7.07;3.40;;;19.50;94.10;;;;;;4227931;28;20217;-70
2022/03/15 04:00:39;;;;;;;7.45;4.10;;;19.40;94.00;;;;;;4226529;28;20271;-70
2022/03/15 04:02:42;;;;;;;6.13;3.47;;;19.40;94.00;;;;;;4228400;28;20275;-70
2022/03/15 04:04:47;;;;;;;5.93;3.55;;;19.50;94.00;;;;;;4227526;28;20700;-70
2022/03/15 04:06:50;;;;;;;6.38;3.85;;;19.40;94.10;;;;;;4228144;28;20267;-70
2022/03/15 04:08:54;;;;;;;6.10;3.75;;;19.50;94.00;;;;;;4227680;28;20226;-70
2022/03/15 04:10:56;;;;;;;5.10;3.65;;;19.40;94.00;;;;;;4226658;28;20332;-70
2022/03/15 04:12:59;;;;;;;5.60;3.65;;;19.50;94.00;;;;;;4227202;28;20270;-70
2022/03/15 04:15:03;;;;;;;5.32;3.60;;;19.50;94.10;;;;;;4227830;28;20221;-70
2022/03/15 04:17:07;;;;;;;6.10;3.63;;;19.40;94.00;;;;;;4226603;28;20256;-68
2022/03/15 04:19:09;;;;;;;7.13;3.63;;;19.50;94.20;;;;;;4228190;28;20213;-69
2022/03/15 04:21:12;;;;;;;6.80;3.63;;;19.50;94.10;;;;;;4226673;28;20282;-70
2022/03/15 04:23:15;;;;;;;4.63;3.17;;;19.40;94.00;;;;;;4226066;28;20210;-70
2022/03/15 04:25:19;;;;;;;6.15;3.78;;;19.40;94.00;;;;;;4227546;28;20284;-70
2022/03/15 04:27:22;;;;;;;5.35;3.20;;;19.40;93.90;;;;;;4224339;28;20724;-70
2022/03/15 04:29:24;;;;;;;6.13;3.80;;;19.40;93.90;;;;;;4225334;28;20218;-70
2022/03/15 04:31:28;;;;;;;6.00;4.00;;;19.40;94.30;;;;;;4225049;28;20217;-70
2022/03/15 04:33:30;;;;;;;7.60;3.90;;;19.40;94.00;;;;;;4225370;28;20595;-70
2022/03/15 04:35:33;;;;;;;4.35;3.08;;;19.40;94.00;;;;;;4224419;28;20359;-70
2022/03/15 04:37:35;;;;;;;7.40;4.15;;;19.40;94.10;;;;;;4225392;28;20275;-70
2022/03/15 04:39:37;;;;;;;6.18;3.40;;;19.40;93.90;;;;;;4227264;28;20209;-70
2022/03/15 04:41:40;;;;;;;5.95;3.25;;;19.40;93.90;;;;;;4227784;28;20209;-70
2022/03/15 04:43:43;;;;;;;5.18;3.50;;;19.40;93.90;;;;;;4226465;28;20222;-70
2022/03/15 04:45:45;;;;;;;5.03;3.45;;;19.40;93.90;;;;;;4227642;28;20306;-70
2022/03/15 04:47:49;;;;;;;7.50;3.92;;;19.30;93.80;;;;;;4227640;28;20214;-70
2022/03/15 04:49:51;;;;;;;5.72;3.28;;;19.40;93.80;;;;;;4225770;28;20214;-70
2022/03/15 04:51:53;;;;;;;5.65;3.30;;;19.30;93.80;;;;;;4226623;28;20324;-70
2022/03/15 04:53:56;;;;;;;5.88;3.50;;;19.30;93.80;;;;;;4227114;28;20261;-70
2022/03/15 04:55:58;;;;;;;5.45;3.40;;;19.40;93.80;;;;;;4224969;28;20264;-70
2022/03/15 04:58:01;;;;;;;4.40;3.45;;;19.30;93.80;;;;;;4228004;28;20270;-70
2022/03/15 05:00:06;;;;;;;6.30;3.70;;;19.30;94.10;;;;;;4227807;28;20226;-70
2022/03/15 05:02:08;;;;;;;4.90;3.08;;;19.30;93.80;;;;;;4226032;28;20218;-70
2022/03/15 05:04:12;;;;;;;5.93;3.47;;;19.30;93.80;;;;;;4226815;28;20217;-70
2022/03/15 05:06:14;;;;;;;5.88;3.47;;;19.30;93.80;;;;;;4227138;28;20643;-70
2022/03/15 05:08:17;;;;;;;5.18;3.45;;;19.30;93.70;;;;;;4226477;28;20237;-70
2022/03/15 05:12:39;;;;;;;4.43;3.45;;;19.30;93.80;;;;;;4225394;28;20189;-70
2022/03/15 05:14:41;;;;;;;5.00;3.55;;;19.30;93.80;;;;;;4227238;28;20213;-70
2022/03/15 05:16:44;;;;;;;5.03;3.67;;;19.30;93.70;;;;;;4226838;28;20214;-70
2022/03/15 05:18:49;;;;;;;5.55;3.60;;;19.30;93.80;;;;;;4226882;28;20744;-70
2022/03/15 05:20:53;;;;;;;6.38;3.40;;;19.30;93.70;;;;;;4225899;28;20263;-70
2022/03/15 05:22:55;;;;;;;4.75;3.20;;;19.30;93.80;;;;;;4225997;28;20217;-70
2022/03/15 05:24:58;;;;;;;4.10;3.40;;;19.30;93.80;;;;;;4224844;28;20217;-70
2022/03/15 05:27:00;;;;;;;5.28;3.45;;;19.30;93.70;;;;;;4227167;28;20237;-70
2022/03/15 05:29:04;;;;;;;7.10;3.60;;;19.30;93.70;;;;;;4227094;28;20251;-70
2022/03/15 05:31:07;;;;;;;3.45;2.90;;;19.30;93.70;;;;;;4222868;28;20662;-70
2022/03/15 05:33:09;;;;;;;6.10;3.40;;;19.20;93.60;;;;;;4225513;28;20218;-70
2022/03/15 05:35:11;;;;;;;7.18;3.80;;;19.30;93.70;;;;;;4226979;28;20235;-70
2022/03/15 05:37:15;;;;;;;4.43;3.30;;;19.20;93.70;;;;;;4226465;28;21024;-70
2022/03/15 05:39:17;;;;;;;5.05;3.05;;;19.20;93.70;;;;;;4224227;28;20222;-70
2022/03/15 05:41:20;;;;;;;6.07;3.33;;;19.20;93.60;;;;;;4221708;28;20214;-70
2022/03/15 05:43:23;;;;;;;5.63;3.28;;;19.20;93.60;;;;;;4226069;28;20217;-70
2022/03/15 05:45:25;;;;;;;6.65;3.60;;;19.20;93.60;;;;;;4226768;28;20266;-74
2022/03/15 05:47:28;;;;;;;5.72;3.67;;;19.20;93.60;;;;;;4224609;28;20222;-73
2022/03/15 05:49:30;;;;;;;6.70;3.10;;;19.30;93.60;;;;;;4226485;28;20214;-73
2022/03/15 05:51:32;;;;;;;4.43;3.00;;;19.20;93.60;;;;;;4225364;28;20214;-73
2022/03/15 05:53:36;;;;;;;5.47;3.33;;;19.20;93.60;;;;;;4226930;28;20226;-73
2022/03/15 05:55:38;;;;;;;5.65;3.10;;;19.10;93.50;;;;;;4227948;28;20225;-73
2022/03/15 05:57:42;;;;;;;4.55;2.90;;;19.10;93.30;;;;;;4229718;28;20213;-73
2022/03/15 05:59:44;;;;;;;6.88;3.17;;;19.20;93.40;;;;;;4229762;28;20217;-73
2022/03/15 06:01:46;;;;;;;5.15;3.03;;;19.20;93.00;;;;;;4229427;28;20226;-74
2022/03/15 06:03:49;;;;;;;5.20;3.10;;;19.10;92.90;;;;;;4229602;28;20954;-74
2022/03/15 06:05:52;;;;;;;5.03;2.80;;;19.20;93.30;;;;;;4229269;28;20241;-73
2022/03/15 06:07:55;;;;;;;4.75;2.92;;;19.10;93.80;;;;;;4228565;28;20210;-70
2022/03/15 06:09:59;;;;;;;3.38;2.72;;;19.20;94.20;;;;;;4229310;28;20259;-70
2022/03/15 06:12:03;;;;;;;5.80;2.95;;;19.20;94.40;;;;;;4226751;28;20209;-70
2022/03/15 06:14:05;;;;;;;4.25;2.85;;;19.20;94.40;;;;;;4227868;28;20266;-70
2022/03/15 06:16:07;;;;;;;3.65;2.80;;;19.20;94.30;;;;;;4227718;28;20283;-69
2022/03/15 06:18:10;;;;;;;4.25;2.88;;;19.30;94.30;;;;;;4227678;28;20287;-70
2022/03/15 06:20:14;;;;;;;5.57;2.97;;;19.30;94.50;;;;;;4229623;28;20264;-70
2022/03/15 06:22:16;;;;;;;4.82;2.67;;;19.30;94.50;;;;;;4229987;28;20213;-69
2022/03/15 06:24:19;;;;;;;5.03;2.70;;;19.30;94.50;;;;;;4225476;28;20255;-69
2022/03/15 06:26:23;;;;;;;4.60;3.00;;;19.30;94.50;;;;;;4229368;28;20263;-69
2022/03/15 06:28:25;;;;;;;4.80;2.75;;;19.30;94.60;;;;;;4229997;28;20214;-70
2022/03/15 06:30:28;;;;;;;4.45;2.50;;;19.30;94.70;;;;;;4229734;28;20719;-70
2022/03/15 06:32:30;;;;;;;3.90;2.72;;;19.40;94.60;;;;;;4229342;28;20218;-70
2022/03/15 06:34:32;;;;;;;3.90;2.78;;;19.40;95.00;;;;;;4229600;28;20247;-70
2022/03/15 06:36:35;;;;;;;4.53;2.83;;;19.40;94.60;;;;;;4228983;28;20214;-70
2022/03/15 06:38:38;;;;;;;4.63;3.00;;;19.40;94.70;;;;;;4229380;28;20291;-70
2022/03/15 06:40:41;;;;;;;4.47;2.70;;;19.40;94.50;;;;;;4229434;28;20217;-70
2022/03/15 06:42:45;;;;;;;3.95;2.38;;;19.50;94.70;;;;;;4228991;28;20221;-70
2022/03/15 06:44:48;;;;;;;3.50;2.40;;;19.50;94.70;;;;;;4229253;28;20738;-70
2022/03/15 06:46:50;;;;;;;3.10;2.42;;;19.50;94.70;;;;;;4228648;28;20253;-70
2022/03/15 06:48:52;;;;;;;4.97;2.50;;;19.50;94.50;;;;;;4228614;28;20226;-70
2022/03/15 06:50:55;;;;;;;5.60;2.88;;;19.50;94.50;;;;;;4227787;28;20270;-70
2022/03/15 06:52:57;;;;;;;3.42;2.42;;;19.60;94.80;;;;;;4228729;28;20268;-70
2022/03/15 06:54:59;;;;;;;3.25;2.20;;;19.60;94.60;;;;;;4228599;28;20222;-70
2022/03/15 06:57:02;;;;;;;3.47;2.38;;;19.60;94.50;;;;;;4229359;28;20209;-70
2022/03/15 06:59:06;;;;;;;3.15;2.17;;;19.60;94.60;;;;;;4228114;28;20226;-70
2022/03/15 07:01:08;;;;;;;4.45;2.10;;;19.70;94.50;;;;;;4229548;28;20205;-70
2022/03/15 07:03:11;;;;;;;3.92;2.45;;;19.70;94.50;;;;;;4227034;28;20236;-70
2022/03/15 07:05:13;;;;;;;3.97;2.42;;;19.70;94.70;;;;;;4229163;28;20275;-70
2022/03/15 07:07:15;;;;;;;5.50;2.30;;;19.70;94.50;;;;;;4228070;28;20633;-70
2022/03/15 07:09:18;;;;;;;3.38;2.40;;;19.70;94.60;;;;;;4226135;28;20616;-70
2022/03/15 07:11:20;;;;;;;3.25;2.45;;;19.80;94.40;;;;;;4228834;28;20221;-70
2022/03/15 07:13:22;;;;;;;3.85;2.42;;;19.80;94.80;;;;;;4228429;28;20221;-71
2022/03/15 07:15:26;;;;;;;2.60;2.35;;;19.80;94.50;;;;;;4229247;28;20226;-70
2022/03/15 07:17:30;;;;;;;3.58;2.15;;;19.80;94.30;;;;;;4227980;28;20611;-70
2022/03/15 07:19:32;;;;;;;4.97;2.40;;;19.80;94.50;;;;;;4227062;28;20209;-70
2022/03/15 07:21:35;;;;;;;3.03;2.25;;;19.80;94.40;;;;;;4228308;28;20210;-70
2022/03/15 07:23:37;;;;;;;4.38;2.38;;;19.80;94.40;;;;;;4227643;28;20274;-70
2022/03/15 07:25:39;;;;;;;3.08;2.38;;;19.80;94.40;;;;;;4227829;28;20266;-70
2022/03/15 07:27:42;;;;;;;3.17;2.10;;;19.80;94.40;;;;;;4221799;28;20238;-70
2022/03/15 07:29:44;;;;;;;2.92;2.10;;;19.90;94.40;;;;;;4225367;28;20217;-70
2022/03/15 07:31:48;;;;;;;4.72;2.30;;;19.90;94.40;;;;;;4228489;28;20662;-70
2022/03/15 07:33:50;;;;;;;3.08;2.05;;;19.90;94.50;;;;;;4227949;28;20342;-70
2022/03/15 07:35:53;;;;;;;3.22;2.25;;;19.90;94.50;;;;;;4227643;28;20217;-70
2022/03/15 07:37:56;;;;;;;3.22;2.30;;;19.90;94.50;;;;;;4228507;28;20968;-70
2022/03/15 07:39:59;;;;;;;3.38;2.10;;;20.00;94.30;;;;;;4225543;28;20217;-70
2022/03/15 07:42:01;;;;;;;3.85;2.38;;;20.00;94.40;;;;;;4226504;27;20600;-70
2022/03/15 07:44:03;;;;;;;4.82;2.42;;;20.00;94.40;;;;;;4226760;28;20217;-70
2022/03/15 07:46:06;;;;;;;5.97;2.45;;;20.00;94.10;;;;;;4225894;27;20279;-69
2022/03/15 07:48:09;;;;;;;3.72;2.00;;;20.10;93.80;;;;;;4212442;27;20638;-69
2022/03/15 07:50:12;;;;;;;3.60;2.30;;;20.10;93.90;;;;;;4222031;27;20217;-69
2022/03/15 07:52:14;;;;;;;4.43;2.22;;;20.00;94.00;;;;;;4220904;28;20272;-70
2022/03/15 07:54:17;;;;;;;3.67;2.20;;;20.00;94.10;;;;;;4224312;27;20278;-70
2022/03/15 07:56:20;;;;;;;7.25;2.67;;;20.10;93.60;;;;;;4220006;27;20225;-70
2022/03/15 07:58:22;;;;;;;3.13;1.90;;;20.20;93.40;;;;;;4221335;27;20264;-68
2022/03/15 08:00:24;;;;;;;4.20;2.08;;;20.20;93.50;;;;;;4219802;27;20225;-72
2022/03/15 08:02:27;;;;;;;3.47;2.30;;;20.20;94.00;;;;;;4221385;27;20218;-71
2022/03/15 08:04:30;;;;;;;4.63;2.33;;;20.30;94.10;;;;;;4221949;27;20214;-71
2022/03/15 08:06:35;;;;;;;3.53;2.03;;;20.30;94.10;;;;;;4220080;27;20219;-70
2022/03/15 08:08:37;;;;;;;3.35;2.03;;;20.30;94.30;;;;;;4220631;27;20218;-69
2022/03/15 08:10:39;;;;;;;3.70;2.10;;;20.30;93.90;;;;;;4224250;27;20223;-70
2022/03/15 08:12:42;;;;;;;3.40;2.22;;;20.30;93.80;;;;;;4220687;27;20263;-70
2022/03/15 08:14:47;;;;;;;4.50;2.20;;;20.30;94.30;;;;;;4220084;27;20217;-70
2022/03/15 08:16:49;;;;;;;4.32;2.20;;;20.40;93.80;;;;;;4222526;27;20951;-71
2022/03/15 08:18:52;;;;;;;5.60;1.92;;;20.40;93.90;;;;;;4220559;27;20230;-70
2022/03/15 08:20:58;;;;;;;5.38;2.33;;;20.50;94.40;;;;;;4218316;28;20211;-71
2022/03/15 08:23:01;;;;;;;6.15;2.42;;;20.50;93.80;;;;;;4220579;28;20214;-70
2022/03/15 08:25:04;;;;;;;6.68;1.88;;;20.50;93.90;;;;;;4220859;27;20206;-70
2022/03/15 08:27:07;;;;;;;6.68;2.20;;;20.50;93.80;;;;;;4220782;27;20291;-70
2022/03/15 08:29:10;;;;;;;2.83;2.22;;;20.50;94.00;;;;;;4219783;27;20264;-70
2022/03/15 08:31:13;;;;;;;5.68;1.92;;;20.50;93.70;;;;;;4218223;28;20214;-74
2022/03/15 08:33:15;;;;;;;4.82;2.20;;;20.50;94.10;;;;;;4217199;27;20222;-73
2022/03/15 08:35:18;;;;;;;4.40;2.50;;;20.50;94.40;;;;;;4218943;27;20209;-71
2022/03/15 08:37:25;;;;;;;4.97;2.10;;;20.60;94.60;;;;;;4217838;27;20233;-73
2022/03/15 08:39:27;;;;;;;4.63;2.25;;;20.60;94.40;;;;;;4221512;27;20279;-71
2022/03/15 08:41:29;;;;;;;9.35;2.45;;;20.70;94.20;;;;;;4218749;28;20213;-71
2022/03/15 08:43:32;;;;;;;6.13;2.72;;;20.60;94.10;;;;;;4223414;27;20263;-72
2022/03/15 08:45:34;;;;;;;3.45;2.25;;;20.70;94.60;;;;;;4215765;27;20254;-71
2022/03/15 08:47:37;;;;;;;4.38;2.20;;;20.70;94.80;;;;;;4213478;28;21038;-71
2022/03/15 08:49:39;;;;;;;6.25;1.90;;;20.70;94.60;;;;;;4220400;27;20217;-70
2022/03/15 08:51:42;;;;;;;3.45;2.08;;;20.60;95.10;;;;;;4220813;27;20654;-70
2022/03/15 08:53:46;;;;;;;3.42;2.10;;;20.60;94.60;;;;;;4218248;28;20210;-70
2022/03/15 08:55:48;;;;;;;3.38;1.73;;;20.60;94.60;;;;;;4219708;27;20283;-70
2022/03/15 08:57:50;;;;;;;6.13;2.28;;;20.70;94.40;;;;;;4223900;27;20213;-70
2022/03/15 08:59:53;;;;;;;3.85;2.35;;;20.80;95.20;;;;;;4218682;27;20267;-70
2022/03/15 09:01:55;;;;;;;6.30;2.65;;;20.80;94.30;;;;;;4222553;28;20814;-70
2022/03/15 09:03:57;;;;;;;3.00;2.05;;;20.80;95.50;;;;;;4220494;27;20608;-70
2022/03/15 09:06:00;;;;;;;5.70;2.17;;;20.80;95.50;;;;;;4224196;28;20210;-71
2022/03/15 09:08:02;;;;;;;5.72;2.33;;;20.80;94.40;;;;;;4216296;28;20283;-71
2022/03/15 09:10:06;;;;;;;6.63;2.50;;;20.90;94.80;;;;;;4218550;28;20213;-71
2022/03/15 09:12:09;;;;;;;3.22;2.17;;;20.80;95.00;;;;;;4218533;28;20213;-70
2022/03/15 09:14:11;;;;;;;4.25;2.15;;;20.90;95.00;;;;;;4219082;28;20271;-71
2022/03/15 09:16:14;;;;;;;5.07;2.45;;;20.90;95.10;;;;;;4220207;28;20210;-70
2022/03/15 09:18:17;;;;;;;3.60;2.28;;;20.90;95.10;;;;;;4213793;28;20243;-71
2022/03/15 09:20:19;;;;;;;2.92;1.75;;;20.90;95.30;;;;;;4216058;28;20206;-71
2022/03/15 09:22:22;;;;;;;5.00;2.40;;;20.90;94.90;;;;;;4216235;28;20259;-70
2022/03/15 09:24:24;;;;;;;3.72;2.28;;;20.90;95.60;;;;;;4218138;28;20222;-70
2022/03/15 09:26:27;;;;;;;5.03;2.15;;;20.90;95.60;;;;;;4219492;28;20670;-71
2022/03/15 09:28:30;;;;;;;4.35;1.77;;;20.90;95.60;;;;;;4213528;28;20242;-70
2022/03/15 09:30:33;;;;;;;3.63;2.15;;;20.90;95.20;;;;;;4218908;27;20670;-71
2022/03/15 09:32:35;;;;;;;13.55;2.33;;;20.90;95.30;;;;;;4214282;27;20269;-71
2022/03/15 09:34:37;;;;;;;5.30;2.53;;;20.90;95.10;;;;;;4221519;28;20268;-71
2022/03/15 09:36:40;;;;;;;6.30;2.47;;;21.00;94.50;;;;;;4221050;27;20267;-70
2022/03/15 09:38:43;;;;;;;5.30;2.25;;;21.00;94.40;;;;;;4221290;27;20267;-70
2022/03/15 09:40:47;;;;;;;5.03;2.40;;;21.00;94.60;;;;;;4222366;27;20217;-70
2022/03/15 09:42:52;;;;;;;5.82;2.10;;;21.00;94.90;;;;;;4222695;27;20315;-70
2022/03/15 09:44:58;;;;;;;4.38;2.33;;;21.00;95.00;;;;;;4221350;28;20211;-70
2022/03/15 09:47:02;;;;;;;8.40;2.20;;;21.00;95.30;;;;;;4221680;27;20210;-71
2022/03/15 09:49:07;;;;;;;3.90;2.35;;;21.00;95.30;;;;;;4220003;27;20226;-70
2022/03/15 09:51:14;;;;;;;3.67;2.00;;;21.00;95.40;;;;;;4223827;27;21380;-70
2022/03/15 09:53:17;;;;;;;3.53;2.20;;;21.00;95.20;;;;;;4223325;27;20275;-70
2022/03/15 09:55:20;;;;;;;3.47;2.15;;;21.00;95.20;;;;;;4224663;27;20218;-70
2022/03/15 09:57:23;;;;;;;3.97;2.33;;;21.10;95.30;;;;;;4224189;27;20743;-70
2022/03/15 09:59:28;;;;;;;3.70;2.30;;;21.10;95.60;;;;;;4223314;27;20210;-71
2022/03/15 10:01:30;;;;;;;3.78;2.10;;;21.10;95.40;;;;;;4224966;27;20218;-70
2022/03/15 10:03:34;;;;;;;4.97;2.50;;;21.10;95.40;;;;;;4222467;27;20219;-70
2022/03/15 10:05:36;;;;;;;5.90;2.33;;;21.10;95.40;;;;;;4221181;27;20221;-70
2022/03/15 10:07:39;;;;;;;5.97;2.10;;;21.10;95.30;;;;;;4219894;27;20697;-71
2022/03/15 10:09:41;;;;;;;5.32;2.13;;;21.10;95.50;;;;;;4219758;28;20242;-71
2022/03/15 10:11:44;;;;;;;5.43;2.15;;;21.10;95.40;;;;;;4220447;27;21528;-71
2022/03/15 10:13:47;;;;;;;6.88;2.28;;;21.20;95.50;;;;;;4223335;27;20221;-71
2022/03/15 10:15:55;;;;;;;6.03;2.38;;;21.20;95.30;;;;;;4220362;27;20222;-71
2022/03/15 10:18:04;;;;;;;7.90;2.72;;;21.10;95.10;;;;;;4218436;27;20309;-71
2022/03/15 10:20:08;;;;;;;4.88;2.20;;;21.20;95.00;;;;;;4222926;27;20213;-71
2022/03/15 10:22:10;;;;;;;6.50;1.92;;;21.20;95.10;;;;;;4223617;27;22075;-71
2022/03/15 10:24:18;;;;;;;5.75;2.25;;;21.20;95.20;;;;;;4220310;27;20310;-71
2022/03/15 10:26:24;;;;;;;6.55;2.13;;;21.10;95.10;;;;;;4218932;27;20221;-71
2022/03/15 10:28:27;;;;;;;8.05;1.85;;;21.10;95.40;;;;;;4220827;27;20759;-71
2022/03/15 10:30:31;;;;;;;4.93;1.90;;;21.20;95.60;;;;;;4221692;27;20235;-72
2022/03/15 10:32:35;;;;;;;6.82;2.58;;;21.30;95.30;;;;;;4219216;27;20206;-72
2022/03/15 10:34:37;;;;;;;3.80;2.15;;;21.30;95.50;;;;;;4219772;28;20563;-73
2022/03/15 10:36:41;;;;;;;6.50;2.63;;;21.40;95.40;;;;;;4224135;27;20607;-72
2022/03/15 10:38:47;;;;;;;7.55;2.30;;;21.30;95.30;;;;;;4219045;27;20233;-72
2022/03/15 10:40:53;;;;;;;43.90;5.15;;;21.30;95.50;;;;;;4219733;28;20728;-73